Weather at Altoona Blair County Airport

Public forecast

Using degrees Fahrenheit for public forecast. Weather courtesy of forecast.io.

Current aviation weather report (METAR) for Altoona Blair County Airport

Retrieved 2021/07/29 17:53 UTC (51 minutes ago):

KAOO 291753Z AUTO 19009KT 7SM OVC110 23/19 A2992 RMK AO2 RAB00E45 SLP122 P0002 60002 T02280194 10244 20189 56023

Aviation forecast (TAF) for Altoona Blair County Airport

Retrieved 2021/07/29 18:28 UTC (16 minutes ago):

TAF KAOO 291727Z 2918/3018 21007KT P6SM -RA VCTS BKN040CB BKN120 FM292000 24008KT P6SM VCSH BKN050 OVC150 FM300100 26006KT P6SM BKN035 FM300700 30007KT 6SM BR BKN008 FM301400 33012G20KT P6SM BKN050